Time;durP1;ratioP1;P1;durP2;ratioP2;P2;SDS_P1;SDS_P2;PMS_P1;PMS_P2;Temp;Humidity;BMP_temperature;BMP_pressure;BME280_temperature;BME280_humidity;BME280_pressure;Samples;Min_cycle;Max_cycle;Signal;HPM_P1;HPM_P2
2023/03/13 00:00:18;;;;;;;43.53;6.82;;;;;;;;;;5089522;28;20115;-62
2023/03/13 00:02:44;;;;;;;44.45;6.10;;;;;;;;;;5088953;28;20047;-62
2023/03/13 00:05:11;;;;;;;40.00;6.65;;;;;;;;;;5089659;28;20040;-63
2023/03/13 00:07:37;;;;;;;32.45;6.38;;;;;;;;;;5089471;28;20036;-62
2023/03/13 00:10:04;;;;;;;35.58;6.13;;;;;;;;;;5089242;28;20040;-62
2023/03/13 00:12:30;;;;;;;33.45;6.13;;;;;;;;;;5088843;28;20046;-62
2023/03/13 00:14:56;;;;;;;39.70;6.40;;;;;;;;;;5089466;28;20043;-62
2023/03/13 00:17:22;;;;;;;35.72;6.47;;;;;;;;;;5089299;28;20048;-62
2023/03/13 00:19:48;;;;;;;29.90;6.82;;;;;;;;;;5088593;28;20051;-62
2023/03/13 00:22:14;;;;;;;33.90;6.38;;;;;;;;;;5089030;28;20087;-62
2023/03/13 00:24:40;;;;;;;37.28;6.85;;;;;;;;;;5089017;28;20385;-63
2023/03/13 00:27:06;;;;;;;35.63;6.28;;;;;;;;;;5069741;28;20040;-63
2023/03/13 00:29:33;;;;;;;41.42;7.15;;;;;;;;;;5068950;28;20084;-63
2023/03/13 00:32:00;;;;;;;35.97;6.43;;;;;;;;;;5068962;28;20040;-62
2023/03/13 00:34:26;;;;;;;38.05;6.03;;;;;;;;;;5068654;28;20517;-62
2023/03/13 00:36:53;;;;;;;39.08;6.63;;;;;;;;;;5069104;28;20546;-62
2023/03/13 00:39:19;;;;;;;32.47;5.70;;;;;;;;;;5068781;28;20049;-62
2023/03/13 00:41:45;;;;;;;37.50;5.95;;;;;;;;;;5050426;28;20044;-62
2023/03/13 00:44:11;;;;;;;47.33;7.25;;;;;;;;;;5072307;28;20090;-63
2023/03/13 00:46:37;;;;;;;40.83;6.53;;;;;;;;;;5072524;28;20119;-63
2023/03/13 00:49:03;;;;;;;35.78;6.25;;;;;;;;;;5090838;28;20131;-62
2023/03/13 00:51:29;;;;;;;32.15;6.22;;;;;;;;;;5092680;28;20039;-63
2023/03/13 00:53:58;;;;;;;40.28;7.63;;;;;;;;;;5092835;28;20137;-62
2023/03/13 00:56:24;;;;;;;28.80;6.05;;;;;;;;;;5091975;28;20406;-62
2023/03/13 00:58:51;;;;;;;32.38;5.72;;;;;;;;;;5092416;28;20044;-62
2023/03/13 01:01:17;;;;;;;32.47;5.80;;;;;;;;;;5092126;28;20126;-62
2023/03/13 01:03:44;;;;;;;40.35;7.53;;;;;;;;;;5091413;28;20170;-62
2023/03/13 01:06:12;;;;;;;32.85;6.07;;;;;;;;;;5074281;28;20040;-62
2023/03/13 01:08:38;;;;;;;43.08;6.68;;;;;;;;;;5092566;28;20043;-62
2023/03/13 01:11:06;;;;;;;31.58;6.88;;;;;;;;;;5091743;28;20042;-63
2023/03/13 01:13:32;;;;;;;30.60;6.70;;;;;;;;;;5092196;28;20438;-63
2023/03/13 01:16:02;;;;;;;42.72;6.97;;;;;;;;;;5092179;28;20464;-63
2023/03/13 01:18:28;;;;;;;30.00;5.80;;;;;;;;;;5091356;28;20040;-63
2023/03/13 01:20:54;;;;;;;31.70;6.45;;;;;;;;;;5092023;28;20115;-63
2023/03/13 01:23:20;;;;;;;29.75;6.43;;;;;;;;;;5091871;28;20059;-63
2023/03/13 01:25:46;;;;;;;25.05;5.18;;;;;;;;;;5084039;28;20107;-63
2023/03/13 01:28:12;;;;;;;38.42;6.60;;;;;;;;;;5071842;28;20466;-63
2023/03/13 01:30:38;;;;;;;35.47;6.70;;;;;;;;;;5071721;28;20040;-63
2023/03/13 01:33:04;;;;;;;32.03;6.22;;;;;;;;;;5071051;28;20375;-63
2023/03/13 01:35:30;;;;;;;23.08;5.40;;;;;;;;;;5071661;28;20124;-63
2023/03/13 01:37:56;;;;;;;30.40;6.32;;;;;;;;;;5071683;28;20093;-63
2023/03/13 01:40:22;;;;;;;25.83;6.30;;;;;;;;;;5070772;28;20412;-63
2023/03/13 01:42:49;;;;;;;34.15;6.40;;;;;;;;;;5071334;28;20051;-63
2023/03/13 01:45:34;;;;;;;29.05;5.68;;;;;;;;;;5053355;28;20044;-63
2023/03/13 01:48:00;;;;;;;33.50;7.30;;;;;;;;;;5081075;28;20076;-63
2023/03/13 01:50:26;;;;;;;37.80;6.88;;;;;;;;;;5091531;28;20062;-63
2023/03/13 01:52:52;;;;;;;31.67;6.80;;;;;;;;;;5091004;28;20076;-63
2023/03/13 01:55:18;;;;;;;33.65;5.68;;;;;;;;;;5090877;28;20402;-63
2023/03/13 01:57:46;;;;;;;32.03;6.13;;;;;;;;;;5091387;28;20040;-63
2023/03/13 02:00:15;;;;;;;29.67;6.05;;;;;;;;;;5091271;28;20036;-63
2023/03/13 02:02:44;;;;;;;29.65;6.30;;;;;;;;;;5090612;28;20044;-63
2023/03/13 02:05:10;;;;;;;32.65;6.63;;;;;;;;;;5091382;28;20047;-63
2023/03/13 02:07:38;;;;;;;29.33;5.68;;;;;;;;;;5091236;28;20519;-63
2023/03/13 02:10:05;;;;;;;32.42;6.43;;;;;;;;;;5090057;28;20061;-63
2023/03/13 02:12:35;;;;;;;35.90;7.18;;;;;;;;;;5072910;28;20040;-63
2023/03/13 02:15:03;;;;;;;25.73;6.00;;;;;;;;;;5091173;28;20044;-63
2023/03/13 02:17:30;;;;;;;31.20;6.80;;;;;;;;;;5090479;28;20032;-63
2023/03/13 02:19:56;;;;;;;35.75;6.75;;;;;;;;;;5091105;28;20043;-63
2023/03/13 02:22:35;;;;;;;33.20;7.25;;;;;;;;;;5090301;28;20056;-63
2023/03/13 02:25:01;;;;;;;24.88;5.38;;;;;;;;;;5089163;28;20040;-63
2023/03/13 02:27:27;;;;;;;25.30;5.85;;;;;;;;;;5070625;28;20110;-63
2023/03/13 02:29:53;;;;;;;16.55;5.60;;;;;;;;;;5070385;28;20119;-63
2023/03/13 02:32:19;;;;;;;23.60;6.43;;;;;;;;;;5069594;28;20040;-63
2023/03/13 02:34:48;;;;;;;29.65;5.43;;;;;;;;;;5070386;28;20390;-63
2023/03/13 02:37:14;;;;;;;19.55;5.35;;;;;;;;;;5070388;28;20414;-63
2023/03/13 02:39:45;;;;;;;20.85;5.90;;;;;;;;;;5069557;28;20448;-63
2023/03/13 02:42:12;;;;;;;23.10;5.80;;;;;;;;;;5070320;28;20037;-63
2023/03/13 02:44:43;;;;;;;26.35;5.80;;;;;;;;;;5070390;28;20123;-63
2023/03/13 02:47:09;;;;;;;21.10;4.97;;;;;;;;;;5072848;28;20400;-63
2023/03/13 02:49:35;;;;;;;19.58;5.07;;;;;;;;;;5090103;28;20039;-63
2023/03/13 02:52:10;;;;;;;22.80;5.95;;;;;;;;;;5090369;28;20478;-63
2023/03/13 02:54:37;;;;;;;17.65;5.75;;;;;;;;;;5089702;28;20039;-63
2023/03/13 02:57:04;;;;;;;19.88;6.30;;;;;;;;;;5090265;28;20058;-63
2023/03/13 02:59:30;;;;;;;13.23;4.65;;;;;;;;;;5071878;28;20078;-63
2023/03/13 03:01:56;;;;;;;14.32;4.72;;;;;;;;;;5089490;28;20058;-64
2023/03/13 03:04:23;;;;;;;17.67;5.00;;;;;;;;;;5089915;28;20333;-64
2023/03/13 03:06:50;;;;;;;12.98;4.60;;;;;;;;;;5089835;28;20038;-64
2023/03/13 03:09:16;;;;;;;22.30;5.32;;;;;;;;;;5089399;28;20089;-64
2023/03/13 03:11:43;;;;;;;13.05;4.55;;;;;;;;;;5090145;28;20118;-64
2023/03/13 03:14:09;;;;;;;13.77;3.92;;;;;;;;;;5090011;28;20044;-64
2023/03/13 03:16:36;;;;;;;19.00;5.07;;;;;;;;;;5089175;28;20044;-64
2023/03/13 03:19:02;;;;;;;15.25;4.60;;;;;;;;;;5089843;28;20040;-64
2023/03/13 03:21:28;;;;;;;9.68;4.50;;;;;;;;;;5089230;28;20125;-64
2023/03/13 03:23:56;;;;;;;15.45;5.00;;;;;;;;;;5070926;28;20131;-64
2023/03/13 03:26:23;;;;;;;13.55;5.13;;;;;;;;;;5077077;28;20041;-64
2023/03/13 03:28:49;;;;;;;10.98;4.80;;;;;;;;;;5069477;28;20044;-64
2023/03/13 03:31:15;;;;;;;11.70;4.95;;;;;;;;;;5069385;28;20067;-64
2023/03/13 03:33:42;;;;;;;10.93;4.78;;;;;;;;;;5069837;28;20044;-64
2023/03/13 03:36:09;;;;;;;10.90;4.80;;;;;;;;;;5069732;28;20048;-64
2023/03/13 03:38:36;;;;;;;13.95;5.50;;;;;;;;;;5050656;28;20056;-64
2023/03/13 03:41:02;;;;;;;13.00;5.68;;;;;;;;;;5069663;28;20041;-64
2023/03/13 03:43:28;;;;;;;16.10;5.47;;;;;;;;;;5069572;28;20041;-63
2023/03/13 03:45:54;;;;;;;13.98;5.85;;;;;;;;;;5068922;28;20032;-64
2023/03/13 03:48:20;;;;;;;14.13;5.65;;;;;;;;;;5082843;28;20068;-64
2023/03/13 03:50:46;;;;;;;12.07;5.30;;;;;;;;;;5089539;28;20101;-64
2023/03/13 03:53:12;;;;;;;11.40;5.10;;;;;;;;;;5071148;28;20067;-64
2023/03/13 03:55:38;;;;;;;17.80;5.88;;;;;;;;;;5088677;28;20048;-64
2023/03/13 03:58:04;;;;;;;18.08;5.88;;;;;;;;;;5089278;28;20040;-64
2023/03/13 04:00:30;;;;;;;11.05;5.38;;;;;;;;;;5088816;28;20044;-64
2023/03/13 04:02:56;;;;;;;13.13;5.30;;;;;;;;;;5089413;28;20055;-64
2023/03/13 04:05:23;;;;;;;8.82;4.50;;;;;;;;;;5089733;28;20029;-64
2023/03/13 04:07:49;;;;;;;12.45;5.70;;;;;;;;;;5088728;28;20126;-64
2023/03/13 04:10:15;;;;;;;8.38;4.43;;;;;;;;;;5089406;28;20128;-64
2023/03/13 04:12:41;;;;;;;12.82;5.95;;;;;;;;;;5089784;28;20119;-64
2023/03/13 04:15:07;;;;;;;15.15;5.95;;;;;;;;;;5088981;28;20490;-64
2023/03/13 04:17:33;;;;;;;12.98;5.43;;;;;;;;;;5092567;28;20047;-64
2023/03/13 04:19:59;;;;;;;10.23;4.82;;;;;;;;;;5075153;28;20132;-64
2023/03/13 04:22:25;;;;;;;10.40;5.93;;;;;;;;;;5092384;28;20082;-64
2023/03/13 04:24:52;;;;;;;11.48;5.65;;;;;;;;;;5093078;28;20048;-64
2023/03/13 04:27:18;;;;;;;8.45;5.57;;;;;;;;;;5073235;28;20119;-64
2023/03/13 04:29:44;;;;;;;13.27;5.68;;;;;;;;;;5072061;28;20062;-64
2023/03/13 04:32:10;;;;;;;10.50;6.00;;;;;;;;;;5072718;28;20505;-64
2023/03/13 04:34:36;;;;;;;10.95;6.40;;;;;;;;;;5054551;28;20036;-64
2023/03/13 04:37:02;;;;;;;12.75;6.47;;;;;;;;;;5072163;28;20036;-64
2023/03/13 04:39:28;;;;;;;12.18;6.90;;;;;;;;;;5072639;28;20475;-64
2023/03/13 04:41:55;;;;;;;13.20;6.95;;;;;;;;;;5072962;28;20036;-64
2023/03/13 04:44:21;;;;;;;15.23;7.80;;;;;;;;;;5072073;28;20049;-64
2023/03/13 04:46:48;;;;;;;16.75;8.02;;;;;;;;;;5054853;28;20048;-64
2023/03/13 04:49:14;;;;;;;16.00;8.27;;;;;;;;;;5092693;28;20043;-64
2023/03/13 04:51:41;;;;;;;19.33;8.73;;;;;;;;;;5091925;28;20043;-64
2023/03/13 04:54:07;;;;;;;17.92;9.30;;;;;;;;;;5092774;28;20036;-64
2023/03/13 04:56:33;;;;;;;26.25;10.02;;;;;;;;;;5092677;28;20044;-64
2023/03/13 04:58:59;;;;;;;19.60;9.73;;;;;;;;;;5091772;28;20082;-64
2023/03/13 05:01:25;;;;;;;24.75;12.18;;;;;;;;;;5092444;28;20040;-64
2023/03/13 05:03:51;;;;;;;19.77;10.52;;;;;;;;;;5092445;28;20055;-64
2023/03/13 05:06:17;;;;;;;19.33;11.02;;;;;;;;;;5091910;28;20047;-64
2023/03/13 05:08:43;;;;;;;25.25;11.55;;;;;;;;;;5092333;28;20043;-64
2023/03/13 05:11:09;;;;;;;22.60;10.70;;;;;;;;;;5092406;28;20044;-64
2023/03/13 05:13:35;;;;;;;18.08;11.20;;;;;;;;;;5091939;28;20040;-64
2023/03/13 05:16:01;;;;;;;15.52;9.50;;;;;;;;;;5092336;28;20546;-64
2023/03/13 05:18:27;;;;;;;15.95;8.60;;;;;;;;;;5092326;28;20044;-65
2023/03/13 05:20:53;;;;;;;14.43;9.15;;;;;;;;;;5091882;28;20044;-64
2023/03/13 05:23:19;;;;;;;19.02;9.68;;;;;;;;;;5091246;28;20044;-65
2023/03/13 05:25:45;;;;;;;19.80;9.73;;;;;;;;;;5085117;28;20119;-65
2023/03/13 05:28:11;;;;;;;19.70;9.55;;;;;;;;;;5070943;28;20036;-65
2023/03/13 05:30:37;;;;;;;16.05;9.32;;;;;;;;;;5071206;28;20040;-65
2023/03/13 05:33:03;;;;;;;16.42;9.43;;;;;;;;;;5071972;28;20048;-65
2023/03/13 05:35:29;;;;;;;15.18;7.95;;;;;;;;;;5072855;28;20449;-65
2023/03/13 05:37:55;;;;;;;18.65;9.45;;;;;;;;;;5072404;28;20044;-65
2023/03/13 05:40:21;;;;;;;21.00;9.40;;;;;;;;;;5072794;28;20085;-65
2023/03/13 05:42:48;;;;;;;15.32;8.68;;;;;;;;;;5073311;28;20052;-65
2023/03/13 05:45:14;;;;;;;20.55;9.65;;;;;;;;;;5054310;28;20044;-65
2023/03/13 05:47:40;;;;;;;18.95;8.65;;;;;;;;;;5080613;28;20496;-65
2023/03/13 05:50:07;;;;;;;12.38;7.40;;;;;;;;;;5093066;28;20119;-65
2023/03/13 05:52:33;;;;;;;16.77;7.70;;;;;;;;;;5092668;28;20036;-65
2023/03/13 05:54:59;;;;;;;19.23;8.48;;;;;;;;;;5093415;28;20064;-65
2023/03/13 05:57:25;;;;;;;10.57;7.18;;;;;;;;;;5075134;28;20140;-64
2023/03/13 05:59:51;;;;;;;13.88;7.45;;;;;;;;;;5074513;28;20548;-65
2023/03/13 06:02:19;;;;;;;21.05;8.43;;;;;;;;;;5074671;28;20387;-64
2023/03/13 06:04:45;;;;;;;11.07;6.78;;;;;;;;;;5093183;28;20055;-64
2023/03/13 06:07:11;;;;;;;22.33;8.40;;;;;;;;;;5092530;28;20043;-64
2023/03/13 06:09:39;;;;;;;13.77;7.38;;;;;;;;;;5092943;28;20036;-64
2023/03/13 06:12:06;;;;;;;12.70;6.95;;;;;;;;;;5093249;28;20394;-64
2023/03/13 06:14:32;;;;;;;13.05;7.13;;;;;;;;;;5092074;28;20051;-64
2023/03/13 06:16:58;;;;;;;16.02;8.30;;;;;;;;;;5092956;28;20036;-64
2023/03/13 06:19:24;;;;;;;15.70;7.53;;;;;;;;;;5092723;28;20051;-64
2023/03/13 06:21:50;;;;;;;14.43;7.47;;;;;;;;;;5091577;28;20062;-64
2023/03/13 06:24:16;;;;;;;15.05;7.57;;;;;;;;;;5092618;28;20084;-64
2023/03/13 06:26:43;;;;;;;11.50;7.78;;;;;;;;;;5077379;28;20115;-64
2023/03/13 06:29:09;;;;;;;15.00;7.57;;;;;;;;;;5053601;28;20123;-65
2023/03/13 06:31:35;;;;;;;12.18;6.38;;;;;;;;;;5071786;28;20087;-65
2023/03/13 06:34:01;;;;;;;16.48;7.80;;;;;;;;;;5072131;28;20140;-65
2023/03/13 06:36:27;;;;;;;14.75;7.00;;;;;;;;;;5071572;28;20123;-65
2023/03/13 06:38:53;;;;;;;20.30;7.63;;;;;;;;;;5072085;28;20119;-65
2023/03/13 06:41:19;;;;;;;15.55;7.15;;;;;;;;;;5070849;28;20052;-65
2023/03/13 06:43:45;;;;;;;18.25;7.63;;;;;;;;;;5071409;28;20044;-65
2023/03/13 06:46:19;;;;;;;17.05;7.13;;;;;;;;;;5072028;28;20548;-65
2023/03/13 06:48:45;;;;;;;14.55;5.75;;;;;;;;;;5088665;28;20056;-65
2023/03/13 06:51:15;;;;;;;14.15;6.50;;;;;;;;;;5091659;28;20039;-65
2023/03/13 06:53:41;;;;;;;17.45;6.47;;;;;;;;;;5092258;28;20500;-65
2023/03/13 06:56:08;;;;;;;14.30;5.82;;;;;;;;;;5092188;28;20482;-65
2023/03/13 06:58:34;;;;;;;17.35;5.57;;;;;;;;;;5091445;28;20116;-65
2023/03/13 07:01:05;;;;;;;19.90;5.93;;;;;;;;;;5092082;28;20169;-65
2023/03/13 07:03:31;;;;;;;19.10;6.15;;;;;;;;;;5091864;28;20072;-65
2023/03/13 07:05:58;;;;;;;11.90;5.20;;;;;;;;;;5091146;28;20040;-65
2023/03/13 07:08:24;;;;;;;12.25;6.03;;;;;;;;;;5091428;28;20063;-65
2023/03/13 07:10:51;;;;;;;18.42;5.53;;;;;;;;;;5079591;28;20048;-65
2023/03/13 07:13:20;;;;;;;17.23;5.75;;;;;;;;;;5070357;28;20041;-65
2023/03/13 07:15:47;;;;;;;15.70;5.68;;;;;;;;;;5071188;28;20044;-66
2023/03/13 07:18:13;;;;;;;15.60;5.45;;;;;;;;;;5071086;28;20036;-66
2023/03/13 07:20:39;;;;;;;19.52;5.78;;;;;;;;;;5069310;28;20043;-65
2023/03/13 07:23:05;;;;;;;15.82;5.53;;;;;;;;;;5088072;28;20375;-67
2023/03/13 07:25:31;;;;;;;14.05;5.60;;;;;;;;;;5076461;28;20042;-68
2023/03/13 07:27:59;;;;;;;13.48;5.03;;;;;;;;;;5075151;28;20540;-67
2023/03/13 07:30:25;;;;;;;17.35;4.85;;;;;;;;;;5070801;28;20107;-67
2023/03/13 07:32:51;;;;;;;14.68;4.90;;;;;;;;;;5070208;28;20047;-66
2023/03/13 07:35:17;;;;;;;18.58;4.20;;;;;;;;;;5070468;28;20406;-66
2023/03/13 07:37:44;;;;;;;8.43;4.22;;;;;;;;;;5070486;28;20475;-67
2023/03/13 07:40:10;;;;;;;17.45;4.82;;;;;;;;;;5070300;28;20045;-64
2023/03/13 07:42:39;;;;;;;17.13;4.68;;;;;;;;;;5081814;28;20036;-66
2023/03/13 07:45:05;;;;;;;10.00;3.80;;;;;;;;;;5068968;28;20044;-66
2023/03/13 07:47:33;;;;;;;14.75;4.95;;;;;;;;;;5071704;28;20044;-65
2023/03/13 07:49:59;;;;;;;11.60;4.10;;;;;;;;;;5081991;28;20083;-68
2023/03/13 07:52:26;;;;;;;11.45;4.22;;;;;;;;;;5085604;28;20445;-66
2023/03/13 07:54:53;;;;;;;9.27;3.42;;;;;;;;;;5072662;28;20517;-65
2023/03/13 07:57:19;;;;;;;12.40;3.90;;;;;;;;;;5076300;28;20055;-64
2023/03/13 07:59:45;;;;;;;14.95;4.00;;;;;;;;;;5072827;28;20415;-66
2023/03/13 08:02:12;;;;;;;7.65;4.05;;;;;;;;;;5073707;28;20047;-67
2023/03/13 08:04:40;;;;;;;9.60;3.80;;;;;;;;;;5093112;28;20044;-67
2023/03/13 08:07:10;;;;;;;8.45;4.13;;;;;;;;;;5093325;28;20079;-67
2023/03/13 08:09:36;;;;;;;10.75;3.92;;;;;;;;;;5066120;28;20048;-67
2023/03/13 08:12:02;;;;;;;7.13;3.65;;;;;;;;;;5071859;28;20047;-68
2023/03/13 08:14:28;;;;;;;9.05;4.35;;;;;;;;;;5075276;28;20043;-67
2023/03/13 08:16:54;;;;;;;9.00;3.80;;;;;;;;;;5072315;28;20486;-69
2023/03/13 08:19:20;;;;;;;9.50;4.53;;;;;;;;;;5059933;28;20047;-69
2023/03/13 08:21:46;;;;;;;10.18;4.75;;;;;;;;;;5090725;28;20044;-68
2023/03/13 08:24:12;;;;;;;12.70;5.35;;;;;;;;;;5071772;28;20063;-67
2023/03/13 08:26:41;;;;;;;7.07;3.90;;;;;;;;;;5072763;28;20525;-67
2023/03/13 08:29:11;;;;;;;6.47;3.85;;;;;;;;;;5072943;28;20459;-67
2023/03/13 08:31:38;;;;;;;9.40;3.97;;;;;;;;;;5072175;28;20048;-67
2023/03/13 08:34:04;;;;;;;12.65;3.97;;;;;;;;;;5075824;28;20119;-67
2023/03/13 08:36:37;;;;;;;9.95;4.18;;;;;;;;;;5092396;28;20047;-67
2023/03/13 08:39:23;;;;;;;7.82;4.32;;;;;;;;;;5092759;28;20043;-66
2023/03/13 08:41:49;;;;;;;9.88;4.55;;;;;;;;;;5071149;28;20067;-66
2023/03/13 08:44:17;;;;;;;10.90;4.93;;;;;;;;;;5070912;28;20076;-69
2023/03/13 08:46:44;;;;;;;11.65;4.30;;;;;;;;;;5071770;28;20644;-69
2023/03/13 08:49:11;;;;;;;11.23;4.32;;;;;;;;;;5062818;28;20771;-69
2023/03/13 08:51:37;;;;;;;9.80;4.53;;;;;;;;;;5082341;28;20036;-69
2023/03/13 08:54:03;;;;;;;10.38;4.45;;;;;;;;;;5093014;28;20040;-69
2023/03/13 08:56:30;;;;;;;12.88;3.72;;;;;;;;;;5071036;28;20048;-65
2023/03/13 08:59:00;;;;;;;6.55;4.22;;;;;;;;;;5076216;28;20092;-66
2023/03/13 09:01:28;;;;;;;7.82;4.03;;;;;;;;;;5093213;28;20119;-69
2023/03/13 09:03:55;;;;;;;9.85;3.72;;;;;;;;;;5069197;28;20145;-69
2023/03/13 09:06:21;;;;;;;9.65;3.80;;;;;;;;;;5071586;28;20086;-67
2023/03/13 09:08:47;;;;;;;8.55;3.70;;;;;;;;;;5084714;28;20036;-66
2023/03/13 09:11:14;;;;;;;8.73;3.80;;;;;;;;;;5082863;28;20109;-66
2023/03/13 09:13:42;;;;;;;11.05;3.67;;;;;;;;;;5075258;28;20044;-67
2023/03/13 09:16:10;;;;;;;7.63;3.58;;;;;;;;;;5072498;28;20071;-67
2023/03/13 09:18:36;;;;;;;5.78;3.38;;;;;;;;;;5084922;28;20044;-66
2023/03/13 09:21:03;;;;;;;10.48;4.30;;;;;;;;;;5092537;28;20039;-66
2023/03/13 09:23:29;;;;;;;7.53;3.13;;;;;;;;;;5092195;28;20055;-65
2023/03/13 09:25:57;;;;;;;10.35;3.83;;;;;;;;;;5091910;28;20036;-65
2023/03/13 09:28:23;;;;;;;10.63;3.40;;;;;;;;;;5092108;28;20044;-68
2023/03/13 09:30:49;;;;;;;11.80;3.42;;;;;;;;;;5090643;28;20123;-68
2023/03/13 09:33:19;;;;;;;12.00;3.83;;;;;;;;;;5069896;28;20119;-67
2023/03/13 09:35:49;;;;;;;11.77;3.45;;;;;;;;;;5070461;28;20521;-66
2023/03/13 09:38:19;;;;;;;11.35;3.40;;;;;;;;;;5072319;28;20040;-66
2023/03/13 09:40:47;;;;;;;11.90;3.78;;;;;;;;;;5069314;28;20036;-65
2023/03/13 09:43:23;;;;;;;10.02;4.07;;;;;;;;;;5071572;28;20048;-65
2023/03/13 09:45:49;;;;;;;8.10;3.58;;;;;;;;;;5070418;28;20047;-65
2023/03/13 09:48:24;;;;;;;11.68;3.88;;;;;;;;;;5079861;28;20106;-65
2023/03/13 09:50:56;;;;;;;6.13;3.35;;;;;;;;;;5089342;28;20121;-65
2023/03/13 09:53:41;;;;;;;7.28;3.22;;;;;;;;;;5091622;28;20073;-65
2023/03/13 09:56:14;;;;;;;7.13;3.17;;;;;;;;;;5079220;28;20055;-64
2023/03/13 09:58:41;;;;;;;11.07;2.92;;;;;;;;;;5077041;28;20051;-66
2023/03/13 10:01:09;;;;;;;9.98;3.40;;;;;;;;;;5081137;28;20036;-66
2023/03/13 10:03:35;;;;;;;10.68;3.00;;;;;;;;;;5087980;28;20032;-64
2023/03/13 10:06:03;;;;;;;10.45;2.92;;;;;;;;;;5072658;28;20094;-64
2023/03/13 10:08:31;;;;;;;10.43;3.28;;;;;;;;;;5071127;28;20036;-64
2023/03/13 10:11:09;;;;;;;7.80;2.25;;;;;;;;;;5074571;28;20050;-63
2023/03/13 10:13:41;;;;;;;8.80;2.92;;;;;;;;;;5084168;28;20680;-65
2023/03/13 10:16:09;;;;;;;8.95;2.47;;;;;;;;;;5083467;28;20075;-66
2023/03/13 10:18:35;;;;;;;10.60;2.42;;;;;;;;;;5085698;28;20048;-64
2023/03/13 10:21:11;;;;;;;9.20;2.60;;;;;;;;;;5084443;28;20044;-62
2023/03/13 10:23:46;;;;;;;10.38;2.30;;;;;;;;;;5084098;28;20080;-64
2023/03/13 10:26:18;;;;;;;10.25;2.65;;;;;;;;;;5080641;28;20173;-62
2023/03/13 10:28:44;;;;;;;14.73;2.67;;;;;;;;;;5081990;28;20071;-64
2023/03/13 10:31:18;;;;;;;9.20;2.92;;;;;;;;;;5084253;28;20561;-63
2023/03/13 10:33:44;;;;;;;8.32;3.00;;;;;;;;;;5085145;28;20036;-65
2023/03/13 10:36:11;;;;;;;9.45;2.45;;;;;;;;;;5078353;28;20502;-65
2023/03/13 10:38:48;;;;;;;8.63;2.30;;;;;;;;;;5084432;28;20393;-63
2023/03/13 10:41:33;;;;;;;9.48;2.55;;;;;;;;;;5086137;28;20119;-64
2023/03/13 10:44:00;;;;;;;12.50;2.67;;;;;;;;;;5084006;28;20160;-62
2023/03/13 10:46:31;;;;;;;14.32;2.67;;;;;;;;;;5080006;28;20040;-64
2023/03/13 10:49:00;;;;;;;7.22;2.08;;;;;;;;;;5079770;28;20047;-65
2023/03/13 10:51:32;;;;;;;10.07;2.30;;;;;;;;;;5086804;28;20920;-65
2023/03/13 10:53:58;;;;;;;12.68;3.08;;;;;;;;;;5066075;28;20052;-65
2023/03/13 10:56:28;;;;;;;8.35;2.10;;;;;;;;;;5081061;28;20071;-65
2023/03/13 10:58:54;;;;;;;8.18;2.63;;;;;;;;;;5089777;28;20378;-65
2023/03/13 11:01:22;;;;;;;14.32;2.80;;;;;;;;;;5068202;28;20455;-66
2023/03/13 11:03:49;;;;;;;9.07;2.20;;;;;;;;;;5074750;28;20043;-67
2023/03/13 11:06:35;;;;;;;12.88;2.90;;;;;;;;;;5085262;28;20036;-65
2023/03/13 11:09:12;;;;;;;9.05;2.33;;;;;;;;;;5088734;28;20088;-65
2023/03/13 11:11:49;;;;;;;8.98;2.15;;;;;;;;;;5074396;28;20047;-62
2023/03/13 11:14:20;;;;;;;9.27;2.45;;;;;;;;;;5089426;28;20086;-63
2023/03/13 11:16:57;;;;;;;9.40;2.35;;;;;;;;;;5084854;28;20040;-64
2023/03/13 11:19:24;;;;;;;7.80;1.80;;;;;;;;;;5087172;28;20069;-63
2023/03/13 11:22:09;;;;;;;10.50;2.13;;;;;;;;;;5080253;28;20215;-63
2023/03/13 11:24:54;;;;;;;8.77;1.98;;;;;;;;;;5080431;28;20131;-65
2023/03/13 11:27:26;;;;;;;7.10;2.03;;;;;;;;;;5087013;28;20039;-65
2023/03/13 11:30:12;;;;;;;4.85;1.95;;;;;;;;;;5088888;28;20132;-66
2023/03/13 11:32:41;;;;;;;6.10;1.85;;;;;;;;;;5085261;28;21207;-66
2023/03/13 11:35:16;;;;;;;7.35;1.75;;;;;;;;;;5082055;28;20044;-66
2023/03/13 11:37:43;;;;;;;6.18;1.58;;;;;;;;;;5085874;28;20189;-67
2023/03/13 11:40:11;;;;;;;4.13;1.40;;;;;;;;;;5080993;28;20613;-64
2023/03/13 11:42:39;;;;;;;5.68;1.98;;;;;;;;;;5087341;28;20040;-65
2023/03/13 11:45:24;;;;;;;4.00;1.30;;;;;;;;;;5067890;28;20071;-63
2023/03/13 11:47:57;;;;;;;6.20;1.65;;;;;;;;;;5085316;28;20085;-64
2023/03/13 11:50:26;;;;;;;3.40;1.30;;;;;;;;;;5088615;28;20032;-63
2023/03/13 11:53:15;;;;;;;4.43;1.85;;;;;;;;;;5087869;28;20035;-64
2023/03/13 11:55:45;;;;;;;5.47;1.42;;;;;;;;;;5073002;28;20048;-62
2023/03/13 11:58:11;;;;;;;5.15;1.42;;;;;;;;;;5084527;28;20029;-62
2023/03/13 12:00:39;;;;;;;6.35;1.33;;;;;;;;;;5085622;28;20770;-65
2023/03/13 12:03:12;;;;;;;4.25;1.52;;;;;;;;;;5088185;28;20047;-64
2023/03/13 12:05:44;;;;;;;4.30;1.60;;;;;;;;;;5087218;28;20101;-64
2023/03/13 12:08:19;;;;;;;7.10;2.00;;;;;;;;;;5078900;28;20048;-65
2023/03/13 12:10:48;;;;;;;6.90;1.30;;;;;;;;;;5074772;28;20041;-63
2023/03/13 12:13:20;;;;;;;3.28;1.38;;;;;;;;;;5085704;28;20558;-63
2023/03/13 12:15:48;;;;;;;5.63;1.50;;;;;;;;;;5084832;28;20040;-63
2023/03/13 12:18:14;;;;;;;6.78;1.60;;;;;;;;;;5078157;28;20076;-64
2023/03/13 12:20:43;;;;;;;11.20;1.88;;;;;;;;;;5081751;28;20066;-64
2023/03/13 12:23:16;;;;;;;5.50;1.60;;;;;;;;;;5083307;28;20940;-64
2023/03/13 12:25:42;;;;;;;;;;;;;;;;;;5086160;28;20036;-63
2023/03/13 12:28:18;;;;;;;6.53;1.25;;;;;;;;;;5068855;28;19920;-64
2023/03/13 12:30:49;;;;;;;8.48;1.80;;;;;;;;;;5072332;28;20068;-63
2023/03/13 12:33:34;;;;;;;8.23;1.80;;;;;;;;;;5075853;28;20174;-63
2023/03/13 12:36:06;;;;;;;4.50;1.33;;;;;;;;;;5081354;28;20089;-64
2023/03/13 12:38:45;;;;;;;3.90;1.35;;;;;;;;;;5080125;28;20114;-65
2023/03/13 12:41:19;;;;;;;6.55;1.70;;;;;;;;;;5084607;28;20067;-63
2023/03/13 12:43:47;;;;;;;8.23;1.58;;;;;;;;;;5083934;28;20068;-67
2023/03/13 12:46:22;;;;;;;7.30;1.60;;;;;;;;;;5076586;28;20370;-65
2023/03/13 12:49:09;;;;;;;10.80;2.10;;;;;;;;;;5085166;28;20355;-65
2023/03/13 12:51:45;;;;;;;4.88;1.42;;;;;;;;;;5074752;28;20048;-64
2023/03/13 12:54:28;;;;;;;8.68;1.85;;;;;;;;;;5083605;28;20068;-65
2023/03/13 12:56:54;;;;;;;9.30;1.98;;;;;;;;;;5088945;28;20046;-65
2023/03/13 12:59:20;;;;;;;9.25;1.90;;;;;;;;;;5073201;28;20044;-65
2023/03/13 13:01:49;;;;;;;10.13;2.50;;;;;;;;;;5066281;28;20048;-66
2023/03/13 13:04:17;;;;;;;13.45;2.42;;;;;;;;;;5075309;28;20036;-67
2023/03/13 13:06:59;;;;;;;8.43;2.08;;;;;;;;;;5082212;28;20044;-69
2023/03/13 13:09:27;;;;;;;14.07;2.45;;;;;;;;;;5087261;28;20040;-68
2023/03/13 13:11:57;;;;;;;11.15;2.13;;;;;;;;;;5090191;28;20524;-66
2023/03/13 13:14:24;;;;;;;11.77;2.80;;;;;;;;;;5091595;28;20128;-65
2023/03/13 13:16:51;;;;;;;11.13;2.40;;;;;;;;;;5079320;28;20044;-66
2023/03/13 13:19:23;;;;;;;11.30;2.60;;;;;;;;;;5087724;28;20044;-66
2023/03/13 13:22:08;;;;;;;10.88;2.08;;;;;;;;;;5090842;28;20043;-66
2023/03/13 13:25:00;;;;;;;7.68;2.45;;;;;;;;;;5088042;28;20044;-67
2023/03/13 13:27:35;;;;;;;9.88;2.33;;;;;;;;;;5076669;28;20443;-66
2023/03/13 13:30:01;;;;;;;11.57;2.22;;;;;;;;;;5069409;28;20055;-68
2023/03/13 13:32:40;;;;;;;19.42;3.35;;;;;;;;;;5091301;28;20032;-66
2023/03/13 13:35:12;;;;;;;19.35;2.92;;;;;;;;;;5080031;28;20097;-65
2023/03/13 13:37:39;;;;;;;12.65;2.78;;;;;;;;;;5089644;28;20047;-66
2023/03/13 13:40:20;;;;;;;14.07;2.45;;;;;;;;;;5075301;28;20043;-67
2023/03/13 13:42:56;;;;;;;14.00;2.80;;;;;;;;;;5080890;28;20048;-67
2023/03/13 13:45:32;;;;;;;12.07;3.25;;;;;;;;;;5080919;28;20051;-69
2023/03/13 13:48:14;;;;;;;17.88;3.45;;;;;;;;;;5071408;28;20555;-64
2023/03/13 13:51:00;;;;;;;13.10;2.67;;;;;;;;;;5088259;28;20101;-65
2023/03/13 13:53:30;;;;;;;14.88;3.45;;;;;;;;;;5087825;28;20052;-65
2023/03/13 13:55:57;;;;;;;12.98;3.17;;;;;;;;;;5087969;28;20036;-67
2023/03/13 13:58:32;;;;;;;15.80;3.67;;;;;;;;;;5087151;28;20048;-66
2023/03/13 14:01:10;;;;;;;15.60;3.13;;;;;;;;;;5088507;28;20048;-67
2023/03/13 14:03:41;;;;;;;15.55;3.10;;;;;;;;;;5071440;28;20126;-65
2023/03/13 14:06:13;;;;;;;14.50;3.03;;;;;;;;;;5073431;28;20051;-66
2023/03/13 14:08:39;;;;;;;;;;;;;;;;;;5091604;28;20067;-66
2023/03/13 14:11:09;;;;;;;13.68;3.00;;;;;;;;;;5091618;28;19963;-63
2023/03/13 14:13:35;;;;;;;13.60;2.78;;;;;;;;;;5091769;28;20050;-66
2023/03/13 14:16:18;;;;;;;14.18;3.47;;;;;;;;;;5089923;28;20028;-67
2023/03/13 14:18:44;;;;;;;15.25;3.92;;;;;;;;;;5068590;28;20139;-66
2023/03/13 14:21:13;;;;;;;12.77;3.33;;;;;;;;;;5079266;28;20040;-67
2023/03/13 14:23:43;;;;;;;17.55;3.47;;;;;;;;;;5086104;28;20059;-67
2023/03/13 14:26:16;;;;;;;18.73;3.75;;;;;;;;;;5079352;28;20117;-67
2023/03/13 14:28:43;;;;;;;19.85;3.63;;;;;;;;;;5068560;28;20051;-66
2023/03/13 14:31:10;;;;;;;14.70;3.42;;;;;;;;;;5070499;28;20052;-66
2023/03/13 14:33:37;;;;;;;22.63;3.63;;;;;;;;;;5080350;28;20539;-65
2023/03/13 14:36:03;;;;;;;17.73;3.50;;;;;;;;;;5082503;28;20135;-67
2023/03/13 14:38:29;;;;;;;17.85;3.13;;;;;;;;;;5078499;28;20458;-65
2023/03/13 14:40:55;;;;;;;12.20;2.63;;;;;;;;;;5089708;28;20505;-65